• Join FlightAware (Why Join?)
  • Login
  • US Flag 
10:08PM EDT


 

Airport Tracker/Info


-or-


 

Live Flight TrackerFlight Track Log ✈ N984BT ✈ 13-Jan-2014 ✈ KGKJ - KBVI

Flight Track Log - Related Links

Times and Time Zones

All times are in EST time to prevent confusion due to time zone crossing. See the N984BT flight status page for this flight to view local times or setup timezone preferences in your user account.

Time Position Orientation Groundspeed Altitude Reporting Facility
EST Latitude Longitude Course Direction KTS MPH feet Rate Location/Type
10:29AM 41.5244 -80.2200 169° South 85 98 4,400  Level Cleveland Center
10:30AM 41.4956 -80.2147 172° South 88 101 4,500  Climbing Cleveland Center
10:31AM 41.4711 -80.2192 188° South 87 100 4,400 -180 Descending Cleveland Center
10:32AM 41.4348 -80.2504 188° South  Level FlightAware Approximate
10:32AM 41.4436 -80.2167 176° South 98 113 4,200  Level Cleveland Center
10:33AM 41.4028 -80.2564 188° South  Level FlightAware Approximate
10:33AM 41.4189 -80.2167 180° South 92 106 4,200  Level Cleveland Center
10:34AM 41.3942 -80.2164 180° South 90 104 4,100 -60 Descending Cleveland Center
10:35AM 41.3706 -80.2181 183° South 87 100 4,100  Level Cleveland Center
10:36AM 41.3431 -80.2178 180° South 84 97 4,200 60 Climbing Cleveland Center
10:37AM 41.3203 -80.2144 174° South 82 94 4,300 120 Climbing Cleveland Center
10:38AM 41.2997 -80.2142 179° South 75 86 4,500 120 Climbing Cleveland Center
10:39AM 41.2786 -80.2161 184° South 74 85 4,600  Climbing Cleveland Center
10:40AM 41.2608 -80.2281 207° Southwest 72 83 4,500 -60 Descending Cleveland Center
10:41AM 41.2403 -80.2467 214° Southwest 73 84 4,500 -180 Level Cleveland Center
10:42AM 41.2189 -80.2517 190° South 86 99 4,200 -240 Descending Cleveland Center
10:43AM 41.1950 -80.2522 181° South 89 102 4,100 -180 Descending Cleveland Center
10:44AM 41.1703 -80.2517 179° South 88 101 3,900 -300 Descending Cleveland Center
10:45AM 41.1458 -80.2514 180° South 88 101 3,600 -300 Descending Cleveland Center
10:46AM 41.1194 -80.2550 186° South 96 110 3,300 -300 Descending Cleveland Center
10:47AM 41.0939 -80.2622 192° South 84 97 3,000 -240 Descending Cleveland Center
10:48AM 41.0733 -80.2708 198° South 81 93 2,900  Descending Cleveland Center
10:49AM 41.0533 -80.2783 196° South 76 87 3,000 60 Climbing Cleveland Center
10:50AM 41.0300 -80.2778 179° South 80 92 3,100  Climbing Cleveland Center
10:51AM 41.0103 -80.2881 201° Southwest 80 92 3,100  Level Cleveland Center
10:52AM 40.9922 -80.3000 207° Southwest 74 85 3,200  Climbing Cleveland Center
10:54AM 40.9669 -80.3058 190° South 76 87 3,100 -120 Descending Cleveland Center
10:55AM 40.9492 -80.3175 206° Southwest 74 85 3,000 -120 Descending Cleveland Center
10:56AM 40.9314 -80.3297 207° Southwest 72 83 2,900  Descending Cleveland Center
10:57AM 40.9083 -80.3356 191° South 80 92 3,000 120 Climbing Cleveland Center
10:58AM 40.8881 -80.3394 188° South 76 87 3,200  Climbing Cleveland Center
10:59AM 40.8669 -80.3469 195° South 79 91 3,100 -180 Descending Cleveland Center
11:00AM 40.8428 -80.3472 180° South 85 98 2,900 -360 Descending Cleveland Center
11:01AM 40.8183 -80.3625 205° Southwest 83 96 2,400 -360 Descending Cleveland Center
11:02AM 40.7961 -80.3753 204° Southwest 84 97 2,200 -300 Descending Cleveland Center
11:03AM 40.7839 -80.3983 235° Southwest 93 107 1,800 -420 Descending Cleveland Center
11:04AM 40.7700 -80.4086 209° Southwest 73 84 1,400 -420 Descending Cleveland Center
11:06AM 40.7725 -80.3914 180° South  Level Estimated